sensor_id;sensor_type;location;lat;lon;timestamp;P1;durP1;ratioP1;P2;durP2;ratioP2
75506;SDS011;64086;43.220;27.878;2023-05-10T00:00:21;8.85;;;6.10;;
75506;SDS011;64086;43.220;27.878;2023-05-10T00:02:48;10.68;;;5.85;;
75506;SDS011;64086;43.220;27.878;2023-05-10T00:05:14;7.80;;;5.88;;
75506;SDS011;64086;43.220;27.878;2023-05-10T00:07:39;8.65;;;6.03;;
75506;SDS011;64086;43.220;27.878;2023-05-10T00:10:05;7.93;;;5.47;;
75506;SDS011;64086;43.220;27.878;2023-05-10T00:12:31;7.90;;;5.28;;
75506;SDS011;64086;43.220;27.878;2023-05-10T00:14:56;8.02;;;5.55;;
75506;SDS011;64086;43.220;27.878;2023-05-10T00:17:22;8.43;;;5.40;;
75506;SDS011;64086;43.220;27.878;2023-05-10T00:19:47;7.28;;;5.45;;
75506;SDS011;64086;43.220;27.878;2023-05-10T00:22:13;10.13;;;5.43;;
75506;SDS011;64086;43.220;27.878;2023-05-10T00:24:38;7.88;;;5.32;;
75506;SDS011;64086;43.220;27.878;2023-05-10T00:27:04;7.60;;;5.05;;
75506;SDS011;64086;43.220;27.878;2023-05-10T00:29:29;7.75;;;5.13;;
75506;SDS011;64086;43.220;27.878;2023-05-10T00:31:55;6.72;;;5.53;;
75506;SDS011;64086;43.220;27.878;2023-05-10T00:34:21;6.75;;;4.80;;
75506;SDS011;64086;43.220;27.878;2023-05-10T00:36:46;6.30;;;4.68;;
75506;SDS011;64086;43.220;27.878;2023-05-10T00:39:12;7.70;;;5.13;;
75506;SDS011;64086;43.220;27.878;2023-05-10T00:41:37;7.78;;;5.20;;
75506;SDS011;64086;43.220;27.878;2023-05-10T00:44:03;6.45;;;4.90;;
75506;SDS011;64086;43.220;27.878;2023-05-10T00:46:30;6.22;;;5.07;;
75506;SDS011;64086;43.220;27.878;2023-05-10T00:48:55;8.02;;;5.30;;
75506;SDS011;64086;43.220;27.878;2023-05-10T00:51:21;7.93;;;5.40;;
75506;SDS011;64086;43.220;27.878;2023-05-10T00:53:47;7.63;;;5.30;;
75506;SDS011;64086;43.220;27.878;2023-05-10T00:56:13;6.47;;;4.53;;
75506;SDS011;64086;43.220;27.878;2023-05-10T00:58:39;6.90;;;4.80;;
75506;SDS011;64086;43.220;27.878;2023-05-10T01:01:05;7.72;;;5.88;;
75506;SDS011;64086;43.220;27.878;2023-05-10T01:03:31;6.65;;;5.55;;
75506;SDS011;64086;43.220;27.878;2023-05-10T01:05:57;8.25;;;6.00;;
75506;SDS011;64086;43.220;27.878;2023-05-10T01:08:23;7.57;;;5.90;;
75506;SDS011;64086;43.220;27.878;2023-05-10T01:10:48;7.30;;;5.50;;
75506;SDS011;64086;43.220;27.878;2023-05-10T01:13:17;7.75;;;5.38;;
75506;SDS011;64086;43.220;27.878;2023-05-10T01:15:45;6.50;;;5.55;;
75506;SDS011;64086;43.220;27.878;2023-05-10T01:18:11;7.57;;;5.72;;
75506;SDS011;64086;43.220;27.878;2023-05-10T01:20:39;6.97;;;5.93;;
75506;SDS011;64086;43.220;27.878;2023-05-10T01:26:14;8.10;;;5.72;;
75506;SDS011;64086;43.220;27.878;2023-05-10T01:37:21;7.32;;;5.38;;
75506;SDS011;64086;43.220;27.878;2023-05-10T01:42:29;8.38;;;5.93;;
75506;SDS011;64086;43.220;27.878;2023-05-10T01:50:35;7.43;;;6.00;;
75506;SDS011;64086;43.220;27.878;2023-05-10T01:53:01;8.35;;;6.53;;
75506;SDS011;64086;43.220;27.878;2023-05-10T01:55:32;9.95;;;6.40;;
75506;SDS011;64086;43.220;27.878;2023-05-10T01:58:10;9.52;;;6.43;;
75506;SDS011;64086;43.220;27.878;2023-05-10T02:00:45;11.32;;;6.28;;
75506;SDS011;64086;43.220;27.878;2023-05-10T02:03:11;8.38;;;6.78;;
75506;SDS011;64086;43.220;27.878;2023-05-10T02:05:37;8.85;;;6.65;;
75506;SDS011;64086;43.220;27.878;2023-05-10T02:08:05;9.07;;;6.43;;
75506;SDS011;64086;43.220;27.878;2023-05-10T02:10:34;8.20;;;6.25;;
75506;SDS011;64086;43.220;27.878;2023-05-10T02:12:59;13.15;;;7.30;;
75506;SDS011;64086;43.220;27.878;2023-05-10T02:15:25;8.52;;;6.57;;
75506;SDS011;64086;43.220;27.878;2023-05-10T02:17:52;11.13;;;7.72;;
75506;SDS011;64086;43.220;27.878;2023-05-10T02:20:20;9.43;;;7.20;;
75506;SDS011;64086;43.220;27.878;2023-05-10T02:22:47;10.30;;;6.88;;
75506;SDS011;64086;43.220;27.878;2023-05-10T02:25:14;10.73;;;7.63;;
75506;SDS011;64086;43.220;27.878;2023-05-10T02:27:41;9.27;;;7.60;;
75506;SDS011;64086;43.220;27.878;2023-05-10T02:30:07;10.80;;;8.05;;
75506;SDS011;64086;43.220;27.878;2023-05-10T02:32:34;8.73;;;7.82;;
75506;SDS011;64086;43.220;27.878;2023-05-10T02:35:01;8.43;;;7.20;;
75506;SDS011;64086;43.220;27.878;2023-05-10T02:37:28;9.70;;;6.78;;
75506;SDS011;64086;43.220;27.878;2023-05-10T02:39:54;9.70;;;8.52;;
75506;SDS011;64086;43.220;27.878;2023-05-10T02:42:22;8.25;;;7.10;;
75506;SDS011;64086;43.220;27.878;2023-05-10T02:44:50;10.10;;;7.50;;
75506;SDS011;64086;43.220;27.878;2023-05-10T02:47:18;10.82;;;7.72;;
75506;SDS011;64086;43.220;27.878;2023-05-10T02:49:44;8.77;;;7.88;;
75506;SDS011;64086;43.220;27.878;2023-05-10T02:52:10;9.88;;;7.78;;
75506;SDS011;64086;43.220;27.878;2023-05-10T02:54:41;9.20;;;7.43;;
75506;SDS011;64086;43.220;27.878;2023-05-10T02:57:10;10.85;;;8.30;;
75506;SDS011;64086;43.220;27.878;2023-05-10T02:59:40;11.43;;;8.07;;
75506;SDS011;64086;43.220;27.878;2023-05-10T03:02:07;14.68;;;11.75;;
75506;SDS011;64086;43.220;27.878;2023-05-10T03:04:33;58.03;;;45.92;;
75506;SDS011;64086;43.220;27.878;2023-05-10T03:06:59;64.55;;;50.97;;
75506;SDS011;64086;43.220;27.878;2023-05-10T03:09:24;71.28;;;57.47;;
75506;SDS011;64086;43.220;27.878;2023-05-10T03:14:53;50.88;;;39.67;;
75506;SDS011;64086;43.220;27.878;2023-05-10T03:23:00;28.25;;;24.05;;
75506;SDS011;64086;43.220;27.878;2023-05-10T03:25:29;32.30;;;28.52;;
75506;SDS011;64086;43.220;27.878;2023-05-10T03:27:56;41.58;;;34.60;;
75506;SDS011;64086;43.220;27.878;2023-05-10T03:30:22;38.05;;;33.92;;
75506;SDS011;64086;43.220;27.878;2023-05-10T03:32:47;36.42;;;30.23;;
75506;SDS011;64086;43.220;27.878;2023-05-10T03:35:13;28.92;;;25.70;;
75506;SDS011;64086;43.220;27.878;2023-05-10T03:37:39;28.73;;;23.50;;
75506;SDS011;64086;43.220;27.878;2023-05-10T03:40:05;27.08;;;23.33;;
75506;SDS011;64086;43.220;27.878;2023-05-10T03:42:30;22.75;;;18.48;;
75506;SDS011;64086;43.220;27.878;2023-05-10T03:44:56;21.55;;;16.92;;
75506;SDS011;64086;43.220;27.878;2023-05-10T03:47:21;22.63;;;19.63;;
75506;SDS011;64086;43.220;27.878;2023-05-10T03:49:47;24.30;;;20.63;;
75506;SDS011;64086;43.220;27.878;2023-05-10T03:52:12;22.70;;;17.20;;
75506;SDS011;64086;43.220;27.878;2023-05-10T03:54:38;23.00;;;17.45;;
75506;SDS011;64086;43.220;27.878;2023-05-10T03:57:03;20.83;;;16.95;;
75506;SDS011;64086;43.220;27.878;2023-05-10T03:59:29;20.85;;;17.50;;
75506;SDS011;64086;43.220;27.878;2023-05-10T04:01:55;16.33;;;14.02;;
75506;SDS011;64086;43.220;27.878;2023-05-10T04:04:21;13.68;;;12.10;;
75506;SDS011;64086;43.220;27.878;2023-05-10T04:06:47;14.82;;;11.57;;
75506;SDS011;64086;43.220;27.878;2023-05-10T04:09:12;18.23;;;12.07;;
75506;SDS011;64086;43.220;27.878;2023-05-10T04:11:37;19.08;;;11.88;;
75506;SDS011;64086;43.220;27.878;2023-05-10T04:14:03;14.90;;;11.23;;
75506;SDS011;64086;43.220;27.878;2023-05-10T04:16:28;15.25;;;9.77;;
75506;SDS011;64086;43.220;27.878;2023-05-10T04:18:54;14.45;;;9.82;;
75506;SDS011;64086;43.220;27.878;2023-05-10T04:21:19;15.50;;;10.23;;
75506;SDS011;64086;43.220;27.878;2023-05-10T04:23:45;15.57;;;10.57;;
75506;SDS011;64086;43.220;27.878;2023-05-10T04:26:10;15.95;;;10.93;;
75506;SDS011;64086;43.220;27.878;2023-05-10T04:28:36;12.43;;;9.82;;
75506;SDS011;64086;43.220;27.878;2023-05-10T04:31:08;14.57;;;9.75;;
75506;SDS011;64086;43.220;27.878;2023-05-10T04:33:34;11.65;;;8.75;;
75506;SDS011;64086;43.220;27.878;2023-05-10T04:36:00;12.93;;;8.15;;
75506;SDS011;64086;43.220;27.878;2023-05-10T04:38:26;11.35;;;8.70;;
75506;SDS011;64086;43.220;27.878;2023-05-10T04:40:52;11.30;;;7.65;;
75506;SDS011;64086;43.220;27.878;2023-05-10T04:43:18;12.18;;;7.97;;
75506;SDS011;64086;43.220;27.878;2023-05-10T04:45:43;10.30;;;8.27;;
75506;SDS011;64086;43.220;27.878;2023-05-10T04:48:09;10.65;;;7.95;;
75506;SDS011;64086;43.220;27.878;2023-05-10T04:50:34;9.10;;;7.68;;
75506;SDS011;64086;43.220;27.878;2023-05-10T04:53:00;9.23;;;6.93;;
75506;SDS011;64086;43.220;27.878;2023-05-10T04:55:25;7.53;;;6.82;;
75506;SDS011;64086;43.220;27.878;2023-05-10T04:57:52;7.15;;;5.68;;
75506;SDS011;64086;43.220;27.878;2023-05-10T05:00:18;8.23;;;5.22;;
75506;SDS011;64086;43.220;27.878;2023-05-10T05:02:43;6.85;;;4.80;;
75506;SDS011;64086;43.220;27.878;2023-05-10T05:05:10;6.20;;;4.28;;
75506;SDS011;64086;43.220;27.878;2023-05-10T05:07:38;5.43;;;4.28;;
75506;SDS011;64086;43.220;27.878;2023-05-10T05:10:06;6.47;;;4.45;;
75506;SDS011;64086;43.220;27.878;2023-05-10T05:12:33;5.35;;;4.18;;
75506;SDS011;64086;43.220;27.878;2023-05-10T05:14:58;4.82;;;4.07;;
75506;SDS011;64086;43.220;27.878;2023-05-10T05:17:24;6.65;;;4.10;;
75506;SDS011;64086;43.220;27.878;2023-05-10T05:19:49;5.88;;;3.60;;
75506;SDS011;64086;43.220;27.878;2023-05-10T05:22:15;5.53;;;3.30;;
75506;SDS011;64086;43.220;27.878;2023-05-10T05:24:40;5.22;;;3.70;;
75506;SDS011;64086;43.220;27.878;2023-05-10T05:27:06;5.93;;;3.72;;
75506;SDS011;64086;43.220;27.878;2023-05-10T05:29:31;7.20;;;4.07;;
75506;SDS011;64086;43.220;27.878;2023-05-10T05:31:57;4.50;;;3.55;;
75506;SDS011;64086;43.220;27.878;2023-05-10T05:34:22;4.50;;;3.95;;
75506;SDS011;64086;43.220;27.878;2023-05-10T05:36:48;4.93;;;3.55;;
75506;SDS011;64086;43.220;27.878;2023-05-10T05:39:13;5.78;;;4.38;;
75506;SDS011;64086;43.220;27.878;2023-05-10T05:41:38;6.15;;;4.10;;
75506;SDS011;64086;43.220;27.878;2023-05-10T05:44:04;4.72;;;3.90;;
75506;SDS011;64086;43.220;27.878;2023-05-10T05:46:29;6.38;;;4.00;;
75506;SDS011;64086;43.220;27.878;2023-05-10T05:48:55;4.20;;;3.63;;
75506;SDS011;64086;43.220;27.878;2023-05-10T05:51:20;4.50;;;3.15;;
75506;SDS011;64086;43.220;27.878;2023-05-10T05:53:46;4.68;;;3.60;;
75506;SDS011;64086;43.220;27.878;2023-05-10T05:56:11;3.60;;;3.30;;
75506;SDS011;64086;43.220;27.878;2023-05-10T05:58:37;4.72;;;3.17;;
75506;SDS011;64086;43.220;27.878;2023-05-10T06:01:02;4.03;;;3.00;;
75506;SDS011;64086;43.220;27.878;2023-05-10T06:03:27;3.88;;;3.22;;
75506;SDS011;64086;43.220;27.878;2023-05-10T06:05:53;4.88;;;3.30;;
75506;SDS011;64086;43.220;27.878;2023-05-10T06:08:18;3.67;;;3.15;;
75506;SDS011;64086;43.220;27.878;2023-05-10T06:10:44;4.22;;;3.33;;
75506;SDS011;64086;43.220;27.878;2023-05-10T06:13:10;3.92;;;3.28;;
75506;SDS011;64086;43.220;27.878;2023-05-10T06:15:35;3.78;;;3.20;;
75506;SDS011;64086;43.220;27.878;2023-05-10T06:18:01;6.25;;;3.35;;
75506;SDS011;64086;43.220;27.878;2023-05-10T06:20:26;4.28;;;3.55;;
75506;SDS011;64086;43.220;27.878;2023-05-10T06:22:52;4.85;;;3.53;;
75506;SDS011;64086;43.220;27.878;2023-05-10T06:25:17;4.75;;;3.50;;
75506;SDS011;64086;43.220;27.878;2023-05-10T06:27:43;5.13;;;3.58;;
75506;SDS011;64086;43.220;27.878;2023-05-10T06:30:09;4.50;;;3.65;;
75506;SDS011;64086;43.220;27.878;2023-05-10T06:32:35;3.85;;;3.45;;
75506;SDS011;64086;43.220;27.878;2023-05-10T06:35:00;4.60;;;4.13;;
75506;SDS011;64086;43.220;27.878;2023-05-10T06:37:26;5.75;;;4.10;;
75506;SDS011;64086;43.220;27.878;2023-05-10T06:39:51;6.57;;;3.78;;
75506;SDS011;64086;43.220;27.878;2023-05-10T06:42:17;4.80;;;3.70;;
75506;SDS011;64086;43.220;27.878;2023-05-10T06:44:42;5.40;;;3.60;;
75506;SDS011;64086;43.220;27.878;2023-05-10T06:47:08;5.68;;;4.30;;
75506;SDS011;64086;43.220;27.878;2023-05-10T06:49:34;4.97;;;3.55;;
75506;SDS011;64086;43.220;27.878;2023-05-10T06:52:00;4.50;;;3.72;;
75506;SDS011;64086;43.220;27.878;2023-05-10T06:54:25;4.90;;;3.95;;
75506;SDS011;64086;43.220;27.878;2023-05-10T06:56:50;4.65;;;3.60;;
75506;SDS011;64086;43.220;27.878;2023-05-10T06:59:16;4.78;;;3.33;;
75506;SDS011;64086;43.220;27.878;2023-05-10T07:01:44;4.40;;;3.40;;
75506;SDS011;64086;43.220;27.878;2023-05-10T07:04:09;4.47;;;3.50;;
75506;SDS011;64086;43.220;27.878;2023-05-10T07:06:34;4.10;;;3.25;;
75506;SDS011;64086;43.220;27.878;2023-05-10T07:09:00;4.40;;;3.60;;
75506;SDS011;64086;43.220;27.878;2023-05-10T07:11:26;5.38;;;3.50;;
75506;SDS011;64086;43.220;27.878;2023-05-10T07:13:52;5.75;;;3.97;;
75506;SDS011;64086;43.220;27.878;2023-05-10T07:16:17;4.43;;;3.40;;
75506;SDS011;64086;43.220;27.878;2023-05-10T07:18:43;4.28;;;3.63;;
75506;SDS011;64086;43.220;27.878;2023-05-10T07:21:08;4.80;;;3.67;;
75506;SDS011;64086;43.220;27.878;2023-05-10T07:23:34;5.05;;;3.60;;
75506;SDS011;64086;43.220;27.878;2023-05-10T07:25:59;4.40;;;3.70;;
75506;SDS011;64086;43.220;27.878;2023-05-10T07:28:25;6.93;;;3.50;;
75506;SDS011;64086;43.220;27.878;2023-05-10T07:30:50;4.15;;;3.30;;
75506;SDS011;64086;43.220;27.878;2023-05-10T07:33:16;5.95;;;3.42;;
75506;SDS011;64086;43.220;27.878;2023-05-10T07:35:42;6.30;;;3.55;;
75506;SDS011;64086;43.220;27.878;2023-05-10T07:38:07;5.63;;;3.55;;
75506;SDS011;64086;43.220;27.878;2023-05-10T07:40:33;4.55;;;3.75;;
75506;SDS011;64086;43.220;27.878;2023-05-10T07:42:58;4.75;;;3.65;;
75506;SDS011;64086;43.220;27.878;2023-05-10T07:45:26;6.18;;;4.28;;
75506;SDS011;64086;43.220;27.878;2023-05-10T07:47:51;5.40;;;3.72;;
75506;SDS011;64086;43.220;27.878;2023-05-10T07:50:16;5.82;;;4.10;;
75506;SDS011;64086;43.220;27.878;2023-05-10T07:52:42;4.28;;;3.50;;
75506;SDS011;64086;43.220;27.878;2023-05-10T07:55:08;3.90;;;3.35;;
75506;SDS011;64086;43.220;27.878;2023-05-10T07:57:34;4.95;;;3.50;;
75506;SDS011;64086;43.220;27.878;2023-05-10T07:59:59;5.25;;;3.75;;
75506;SDS011;64086;43.220;27.878;2023-05-10T08:02:25;3.75;;;3.35;;
75506;SDS011;64086;43.220;27.878;2023-05-10T08:04:50;3.80;;;3.25;;
75506;SDS011;64086;43.220;27.878;2023-05-10T08:07:16;4.18;;;3.40;;
75506;SDS011;64086;43.220;27.878;2023-05-10T08:09:42;3.88;;;3.40;;
75506;SDS011;64086;43.220;27.878;2023-05-10T08:12:07;6.07;;;3.88;;
75506;SDS011;64086;43.220;27.878;2023-05-10T08:14:32;4.20;;;3.80;;
75506;SDS011;64086;43.220;27.878;2023-05-10T08:16:58;4.47;;;4.07;;
75506;SDS011;64086;43.220;27.878;2023-05-10T08:19:23;6.28;;;4.18;;
75506;SDS011;64086;43.220;27.878;2023-05-10T08:21:49;5.63;;;3.95;;
75506;SDS011;64086;43.220;27.878;2023-05-10T08:24:14;4.38;;;3.58;;
75506;SDS011;64086;43.220;27.878;2023-05-10T08:26:40;7.10;;;3.88;;
75506;SDS011;64086;43.220;27.878;2023-05-10T08:29:05;4.90;;;4.00;;
75506;SDS011;64086;43.220;27.878;2023-05-10T08:31:31;10.02;;;4.03;;
75506;SDS011;64086;43.220;27.878;2023-05-10T08:33:56;4.88;;;3.35;;
75506;SDS011;64086;43.220;27.878;2023-05-10T08:36:22;4.05;;;3.17;;
75506;SDS011;64086;43.220;27.878;2023-05-10T08:38:52;4.55;;;3.78;;
75506;SDS011;64086;43.220;27.878;2023-05-10T08:41:21;4.35;;;3.67;;
75506;SDS011;64086;43.220;27.878;2023-05-10T08:43:49;4.43;;;3.75;;
75506;SDS011;64086;43.220;27.878;2023-05-10T08:46:16;3.90;;;3.50;;
75506;SDS011;64086;43.220;27.878;2023-05-10T08:48:43;3.88;;;3.47;;
75506;SDS011;64086;43.220;27.878;2023-05-10T08:51:09;6.53;;;3.80;;
75506;SDS011;64086;43.220;27.878;2023-05-10T08:53:38;4.85;;;3.78;;
75506;SDS011;64086;43.220;27.878;2023-05-10T08:56:04;5.93;;;4.13;;
75506;SDS011;64086;43.220;27.878;2023-05-10T08:58:30;5.13;;;3.80;;
75506;SDS011;64086;43.220;27.878;2023-05-10T09:00:56;4.28;;;3.70;;
75506;SDS011;64086;43.220;27.878;2023-05-10T09:03:22;4.85;;;3.67;;
75506;SDS011;64086;43.220;27.878;2023-05-10T09:05:48;5.38;;;3.60;;
75506;SDS011;64086;43.220;27.878;2023-05-10T09:08:14;3.50;;;3.20;;
75506;SDS011;64086;43.220;27.878;2023-05-10T09:10:41;9.00;;;3.78;;
75506;SDS011;64086;43.220;27.878;2023-05-10T09:13:08;3.60;;;3.25;;
75506;SDS011;64086;43.220;27.878;2023-05-10T09:15:35;4.28;;;3.35;;
75506;SDS011;64086;43.220;27.878;2023-05-10T09:18:00;4.60;;;3.25;;
75506;SDS011;64086;43.220;27.878;2023-05-10T09:20:27;5.38;;;3.90;;
75506;SDS011;64086;43.220;27.878;2023-05-10T09:22:53;4.75;;;3.85;;
75506;SDS011;64086;43.220;27.878;2023-05-10T09:25:19;4.32;;;3.72;;
75506;SDS011;64086;43.220;27.878;2023-05-10T09:27:45;6.53;;;3.90;;
75506;SDS011;64086;43.220;27.878;2023-05-10T09:32:50;3.75;;;3.22;;
75506;SDS011;64086;43.220;27.878;2023-05-10T09:35:18;4.32;;;3.80;;
75506;SDS011;64086;43.220;27.878;2023-05-10T09:37:45;5.00;;;4.05;;
75506;SDS011;64086;43.220;27.878;2023-05-10T09:40:16;5.57;;;4.47;;
75506;SDS011;64086;43.220;27.878;2023-05-10T09:42:50;6.25;;;4.38;;
75506;SDS011;64086;43.220;27.878;2023-05-10T09:45:19;8.48;;;4.47;;
75506;SDS011;64086;43.220;27.878;2023-05-10T09:47:45;5.90;;;3.95;;
75506;SDS011;64086;43.220;27.878;2023-05-10T09:50:10;6.85;;;3.85;;
75506;SDS011;64086;43.220;27.878;2023-05-10T09:52:58;7.03;;;4.40;;
75506;SDS011;64086;43.220;27.878;2023-05-10T09:58:01;6.55;;;3.97;;
75506;SDS011;64086;43.220;27.878;2023-05-10T10:00:27;4.47;;;3.40;;
75506;SDS011;64086;43.220;27.878;2023-05-10T10:02:57;4.93;;;4.05;;
75506;SDS011;64086;43.220;27.878;2023-05-10T10:07:55;5.80;;;4.05;;
75506;SDS011;64086;43.220;27.878;2023-05-10T10:10:22;4.47;;;3.85;;
75506;SDS011;64086;43.220;27.878;2023-05-10T10:12:49;5.32;;;3.88;;
75506;SDS011;64086;43.220;27.878;2023-05-10T10:15:15;5.35;;;3.80;;
75506;SDS011;64086;43.220;27.878;2023-05-10T10:17:40;7.28;;;4.00;;
75506;SDS011;64086;43.220;27.878;2023-05-10T10:20:08;5.13;;;3.80;;
75506;SDS011;64086;43.220;27.878;2023-05-10T10:22:34;5.43;;;4.43;;
75506;SDS011;64086;43.220;27.878;2023-05-10T10:25:00;6.13;;;4.15;;
75506;SDS011;64086;43.220;27.878;2023-05-10T10:27:37;4.50;;;3.95;;
75506;SDS011;64086;43.220;27.878;2023-05-10T10:35:42;4.22;;;3.42;;
75506;SDS011;64086;43.220;27.878;2023-05-10T10:38:09;5.13;;;4.00;;
75506;SDS011;64086;43.220;27.878;2023-05-10T10:40:34;4.35;;;3.50;;
75506;SDS011;64086;43.220;27.878;2023-05-10T10:48:37;4.75;;;4.13;;
75506;SDS011;64086;43.220;27.878;2023-05-10T10:51:02;5.68;;;4.00;;
75506;SDS011;64086;43.220;27.878;2023-05-10T10:53:28;5.25;;;3.70;;
75506;SDS011;64086;43.220;27.878;2023-05-10T10:56:06;5.68;;;3.83;;
75506;SDS011;64086;43.220;27.878;2023-05-10T10:58:34;5.28;;;3.28;;
75506;SDS011;64086;43.220;27.878;2023-05-10T11:02:01;5.82;;;3.60;;
75506;SDS011;64086;43.220;27.878;2023-05-10T11:06:31;6.43;;;3.60;;
75506;SDS011;64086;43.220;27.878;2023-05-10T11:08:57;5.03;;;3.50;;
75506;SDS011;64086;43.220;27.878;2023-05-10T11:11:23;4.72;;;4.20;;
75506;SDS011;64086;43.220;27.878;2023-05-10T11:13:48;7.32;;;4.15;;
75506;SDS011;64086;43.220;27.878;2023-05-10T11:18:40;5.38;;;3.70;;
75506;SDS011;64086;43.220;27.878;2023-05-10T11:21:06;4.60;;;3.45;;
75506;SDS011;64086;43.220;27.878;2023-05-10T11:26:14;3.92;;;3.53;;
75506;SDS011;64086;43.220;27.878;2023-05-10T11:28:43;4.32;;;3.65;;
75506;SDS011;64086;43.220;27.878;2023-05-10T11:31:10;6.38;;;4.30;;
75506;SDS011;64086;43.220;27.878;2023-05-10T11:33:47;4.97;;;3.80;;
75506;SDS011;64086;43.220;27.878;2023-05-10T11:36:15;5.25;;;4.07;;
75506;SDS011;64086;43.220;27.878;2023-05-10T11:38:45;8.95;;;4.18;;
75506;SDS011;64086;43.220;27.878;2023-05-10T11:41:11;5.55;;;3.90;;
75506;SDS011;64086;43.220;27.878;2023-05-10T11:43:40;5.28;;;4.00;;
75506;SDS011;64086;43.220;27.878;2023-05-10T11:46:06;4.53;;;3.45;;
75506;SDS011;64086;43.220;27.878;2023-05-10T11:48:33;4.18;;;3.70;;
75506;SDS011;64086;43.220;27.878;2023-05-10T11:50:58;4.70;;;3.60;;
75506;SDS011;64086;43.220;27.878;2023-05-10T11:53:27;4.60;;;3.92;;
75506;SDS011;64086;43.220;27.878;2023-05-10T11:55:53;7.60;;;4.47;;
75506;SDS011;64086;43.220;27.878;2023-05-10T11:58:18;5.68;;;4.30;;
75506;SDS011;64086;43.220;27.878;2023-05-10T12:00:44;7.05;;;4.38;;
75506;SDS011;64086;43.220;27.878;2023-05-10T12:03:10;4.47;;;4.07;;
75506;SDS011;64086;43.220;27.878;2023-05-10T12:05:36;4.72;;;4.00;;
75506;SDS011;64086;43.220;27.878;2023-05-10T12:08:12;4.97;;;4.30;;
75506;SDS011;64086;43.220;27.878;2023-05-10T12:10:40;5.93;;;4.78;;
75506;SDS011;64086;43.220;27.878;2023-05-10T12:13:10;6.65;;;3.85;;
75506;SDS011;64086;43.220;27.878;2023-05-10T12:15:39;6.82;;;4.00;;
75506;SDS011;64086;43.220;27.878;2023-05-10T12:18:05;6.07;;;4.20;;
75506;SDS011;64086;43.220;27.878;2023-05-10T12:20:30;8.35;;;4.90;;
75506;SDS011;64086;43.220;27.878;2023-05-10T12:22:57;5.40;;;4.32;;
75506;SDS011;64086;43.220;27.878;2023-05-10T12:25:23;7.53;;;5.20;;
75506;SDS011;64086;43.220;27.878;2023-05-10T12:27:54;5.07;;;4.05;;
75506;SDS011;64086;43.220;27.878;2023-05-10T12:30:31;4.70;;;3.60;;
75506;SDS011;64086;43.220;27.878;2023-05-10T12:33:01;5.85;;;4.45;;
75506;SDS011;64086;43.220;27.878;2023-05-10T12:35:43;5.22;;;3.97;;
75506;SDS011;64086;43.220;27.878;2023-05-10T12:38:24;5.68;;;4.30;;
75506;SDS011;64086;43.220;27.878;2023-05-10T12:40:59;5.13;;;4.10;;
75506;SDS011;64086;43.220;27.878;2023-05-10T12:43:25;5.72;;;5.20;;
75506;SDS011;64086;43.220;27.878;2023-05-10T12:45:51;5.95;;;4.00;;
75506;SDS011;64086;43.220;27.878;2023-05-10T12:48:16;4.32;;;3.80;;
75506;SDS011;64086;43.220;27.878;2023-05-10T12:50:42;4.47;;;3.75;;
75506;SDS011;64086;43.220;27.878;2023-05-10T12:53:07;6.13;;;4.28;;
75506;SDS011;64086;43.220;27.878;2023-05-10T12:55:33;6.40;;;4.78;;
75506;SDS011;64086;43.220;27.878;2023-05-10T12:57:59;4.60;;;3.55;;
75506;SDS011;64086;43.220;27.878;2023-05-10T13:00:24;5.65;;;4.57;;
75506;SDS011;64086;43.220;27.878;2023-05-10T13:02:50;5.25;;;4.00;;
75506;SDS011;64086;43.220;27.878;2023-05-10T13:05:15;6.18;;;4.00;;
75506;SDS011;64086;43.220;27.878;2023-05-10T13:07:40;4.68;;;3.65;;
75506;SDS011;64086;43.220;27.878;2023-05-10T13:10:06;4.43;;;3.65;;
75506;SDS011;64086;43.220;27.878;2023-05-10T13:12:32;6.15;;;3.78;;
75506;SDS011;64086;43.220;27.878;2023-05-10T13:14:57;4.30;;;3.45;;
75506;SDS011;64086;43.220;27.878;2023-05-10T13:17:25;5.97;;;3.58;;
75506;SDS011;64086;43.220;27.878;2023-05-10T13:19:50;3.97;;;3.20;;
75506;SDS011;64086;43.220;27.878;2023-05-10T13:22:16;4.72;;;3.40;;
75506;SDS011;64086;43.220;27.878;2023-05-10T13:24:42;5.88;;;3.45;;
75506;SDS011;64086;43.220;27.878;2023-05-10T13:27:07;4.53;;;3.20;;
75506;SDS011;64086;43.220;27.878;2023-05-10T13:29:33;6.82;;;4.15;;
75506;SDS011;64086;43.220;27.878;2023-05-10T13:31:58;4.55;;;3.30;;
75506;SDS011;64086;43.220;27.878;2023-05-10T13:34:24;5.00;;;3.58;;
75506;SDS011;64086;43.220;27.878;2023-05-10T13:36:49;4.97;;;3.20;;
75506;SDS011;64086;43.220;27.878;2023-05-10T13:39:15;4.72;;;3.45;;
75506;SDS011;64086;43.220;27.878;2023-05-10T13:41:41;4.68;;;3.45;;
75506;SDS011;64086;43.220;27.878;2023-05-10T13:44:07;7.32;;;3.55;;
75506;SDS011;64086;43.220;27.878;2023-05-10T13:46:32;4.68;;;3.30;;
75506;SDS011;64086;43.220;27.878;2023-05-10T13:48:58;5.63;;;3.38;;
75506;SDS011;64086;43.220;27.878;2023-05-10T13:51:23;5.68;;;3.80;;
75506;SDS011;64086;43.220;27.878;2023-05-10T13:53:49;5.47;;;3.60;;
75506;SDS011;64086;43.220;27.878;2023-05-10T13:56:14;7.40;;;3.55;;
75506;SDS011;64086;43.220;27.878;2023-05-10T13:58:40;5.45;;;3.10;;
75506;SDS011;64086;43.220;27.878;2023-05-10T14:01:06;6.00;;;3.40;;
75506;SDS011;64086;43.220;27.878;2023-05-10T14:03:31;5.15;;;3.55;;
75506;SDS011;64086;43.220;27.878;2023-05-10T14:05:57;5.78;;;3.45;;
75506;SDS011;64086;43.220;27.878;2023-05-10T14:08:23;4.90;;;3.53;;
75506;SDS011;64086;43.220;27.878;2023-05-10T14:10:48;4.82;;;3.13;;
75506;SDS011;64086;43.220;27.878;2023-05-10T14:13:15;5.35;;;3.20;;
75506;SDS011;64086;43.220;27.878;2023-05-10T14:15:41;6.75;;;3.67;;
75506;SDS011;64086;43.220;27.878;2023-05-10T14:18:06;4.22;;;3.08;;
75506;SDS011;64086;43.220;27.878;2023-05-10T14:20:32;8.18;;;2.95;;
75506;SDS011;64086;43.220;27.878;2023-05-10T14:22:59;5.97;;;3.30;;
75506;SDS011;64086;43.220;27.878;2023-05-10T14:25:24;4.90;;;3.60;;
75506;SDS011;64086;43.220;27.878;2023-05-10T14:27:50;5.55;;;3.50;;
75506;SDS011;64086;43.220;27.878;2023-05-10T14:30:16;5.18;;;3.55;;
75506;SDS011;64086;43.220;27.878;2023-05-10T14:32:42;4.63;;;2.92;;
75506;SDS011;64086;43.220;27.878;2023-05-10T14:35:07;6.47;;;3.22;;
75506;SDS011;64086;43.220;27.878;2023-05-10T14:37:33;4.55;;;3.47;;
75506;SDS011;64086;43.220;27.878;2023-05-10T14:39:59;5.35;;;3.15;;
75506;SDS011;64086;43.220;27.878;2023-05-10T14:42:25;5.50;;;3.95;;
75506;SDS011;64086;43.220;27.878;2023-05-10T14:44:50;4.93;;;3.50;;
75506;SDS011;64086;43.220;27.878;2023-05-10T14:47:16;5.95;;;3.55;;
75506;SDS011;64086;43.220;27.878;2023-05-10T14:49:41;5.55;;;3.45;;
75506;SDS011;64086;43.220;27.878;2023-05-10T14:52:07;6.78;;;3.78;;
75506;SDS011;64086;43.220;27.878;2023-05-10T14:54:32;5.30;;;4.20;;
75506;SDS011;64086;43.220;27.878;2023-05-10T14:57:00;5.15;;;3.55;;
75506;SDS011;64086;43.220;27.878;2023-05-10T14:59:26;5.85;;;3.53;;
75506;SDS011;64086;43.220;27.878;2023-05-10T15:01:51;5.57;;;3.53;;
75506;SDS011;64086;43.220;27.878;2023-05-10T15:04:17;5.30;;;3.70;;
75506;SDS011;64086;43.220;27.878;2023-05-10T15:06:42;5.97;;;3.25;;
75506;SDS011;64086;43.220;27.878;2023-05-10T15:09:08;5.05;;;3.90;;
75506;SDS011;64086;43.220;27.878;2023-05-10T15:11:33;4.63;;;3.72;;
75506;SDS011;64086;43.220;27.878;2023-05-10T15:13:59;5.20;;;3.92;;
75506;SDS011;64086;43.220;27.878;2023-05-10T15:16:24;6.15;;;3.90;;
75506;SDS011;64086;43.220;27.878;2023-05-10T15:18:50;5.03;;;3.72;;
75506;SDS011;64086;43.220;27.878;2023-05-10T15:21:15;6.05;;;3.70;;